Time;durP1;ratioP1;P1;durP2;ratioP2;P2;SDS_P1;SDS_P2;PMS_P1;PMS_P2;Temp;Humidity;BMP_temperature;BMP_pressure;BME280_temperature;BME280_humidity;BME280_pressure;Samples;Min_cycle;Max_cycle;Signal;HPM_P1;HPM_P2
2022/02/12 00:02:06;;;;;;;1.97;1.20;;;;;;;5.49;93.79;100793.00;4927038;29;20645;-77
2022/02/12 00:04:32;;;;;;;1.97;1.40;;;;;;;5.60;92.90;100801.50;4909894;29;20193;-79
2022/02/12 00:06:59;;;;;;;2.83;1.13;;;;;;;5.57;92.79;100796.53;4926756;29;20228;-77
2022/02/12 00:09:26;;;;;;;4.33;1.27;;;;;;;5.58;93.65;100803.53;4910519;29;20218;-78
2022/02/12 00:11:54;;;;;;;2.20;1.00;;;;;;;5.56;93.51;100802.00;4926894;29;20186;-81
2022/02/12 00:14:20;;;;;;;1.53;1.20;;;;;;;5.57;93.90;100793.88;4927685;29;20190;-80
2022/02/12 00:16:47;;;;;;;2.77;1.20;;;;;;;5.65;93.92;100814.34;4911551;29;20558;-77
2022/02/12 00:19:14;;;;;;;1.63;1.10;;;;;;;5.52;94.07;100803.31;4910507;29;20206;-78
2022/02/12 00:21:40;;;;;;;1.57;1.13;;;;;;;5.52;95.33;100813.94;4909379;29;20194;-77
2022/02/12 00:24:07;;;;;;;2.33;1.40;;;;;;;5.50;95.15;100803.50;4910006;29;20259;-79
2022/02/12 00:26:34;;;;;;;3.77;1.43;;;;;;;5.53;96.43;100802.31;4928063;29;20194;-80
2022/02/12 00:29:00;;;;;;;2.97;1.20;;;;;;;5.40;97.79;100799.28;4911090;29;20193;-77
2022/02/12 00:31:27;;;;;;;2.30;1.30;;;;;;;5.46;98.00;100802.09;4910182;29;20221;-79
2022/02/12 00:33:54;;;;;;;1.63;1.30;;;;;;;5.52;97.43;100808.63;4910713;29;20206;-78
2022/02/12 00:36:21;;;;;;;2.93;1.30;;;;;;;5.52;97.55;100816.59;4927242;29;20622;-80
2022/02/12 00:38:50;;;;;;;2.27;1.47;;;;;;;5.46;97.72;100819.91;4910474;29;20254;-76
2022/02/12 00:41:17;;;;;;;1.97;1.30;;;;;;;5.44;98.57;100811.25;4911191;29;20225;-80
2022/02/12 00:43:43;;;;;;;2.03;1.30;;;;;;;5.40;99.31;100815.22;4927275;29;20186;-77
2022/02/12 00:46:12;;;;;;;2.63;1.30;;;;;;;5.31;100.00;100831.13;4910226;29;20218;-77
2022/02/12 00:48:38;;;;;;;2.20;1.40;;;;;;;5.44;99.66;100822.72;4910483;29;20210;-77
2022/02/12 00:51:05;;;;;;;2.17;1.30;;;;;;;5.46;99.59;100830.53;4910738;29;20210;-76
2022/02/12 00:53:32;;;;;;;2.07;1.20;;;;;;;5.42;100.00;100827.34;4910292;29;20621;-80
2022/02/12 00:55:59;;;;;;;2.23;1.40;;;;;;;5.39;100.00;100834.81;4926232;29;20674;-79
2022/02/12 00:58:25;;;;;;;4.07;1.60;;;;;;;5.25;100.00;100841.53;4909382;29;20277;-78
2022/02/12 01:00:52;;;;;;;3.40;1.70;;;;;;;5.39;100.00;100856.91;4926224;29;20191;-77
2022/02/12 01:03:18;;;;;;;2.60;1.50;;;;;;;5.43;100.00;100846.78;4927318;29;20190;-76
2022/02/12 01:05:45;;;;;;;2.00;1.47;;;;;;;5.38;100.00;100860.53;4910149;29;20213;-77
2022/02/12 01:08:12;;;;;;;2.70;1.40;;;;;;;5.32;100.00;100845.22;4926539;29;20232;-78
2022/02/12 01:10:39;;;;;;;1.60;1.30;;;;;;;5.23;100.00;100846.97;4909491;29;20273;-81
2022/02/12 01:13:06;;;;;;;2.33;1.50;;;;;;;5.21;100.00;100854.28;4925233;29;20186;-80
2022/02/12 01:15:34;;;;;;;3.17;1.63;;;;;;;5.20;100.00;100865.06;4925074;29;20659;-78
2022/02/12 01:18:03;;;;;;;2.80;1.90;;;;;;;5.17;100.00;100866.22;4925268;29;20558;-76
2022/02/12 01:20:30;;;;;;;1.80;1.57;;;;;;;5.29;100.00;100867.63;4893659;29;20202;-77
2022/02/12 01:22:57;;;;;;;2.73;1.40;;;;;;;5.39;100.00;100879.97;4910030;29;20218;-77
2022/02/12 01:25:24;;;;;;;2.13;1.53;;;;;;;5.34;100.00;100875.13;4909595;29;20221;-80
2022/02/12 01:27:50;;;;;;;3.57;1.50;;;;;;;5.24;100.00;100880.53;4893996;29;20200;-79
2022/02/12 01:30:17;;;;;;;3.20;1.80;;;;;;;5.39;100.00;100880.81;4925456;29;20183;-80
2022/02/12 01:32:44;;;;;;;2.73;1.70;;;;;;;5.30;100.00;100877.28;4909223;29;20197;-78
2022/02/12 01:35:12;;;;;;;4.10;1.90;;;;;;;5.26;100.00;100875.09;4893741;29;20201;-78
2022/02/12 01:37:39;;;;;;;2.80;1.70;;;;;;;5.27;100.00;100882.88;4909411;29;20589;-78
2022/02/12 01:40:07;;;;;;;2.23;1.70;;;;;;;5.27;100.00;100892.72;4925139;29;20214;-81
2022/02/12 01:42:34;;;;;;;4.87;1.90;;;;;;;5.08;100.00;100899.03;4908377;29;20233;-81
2022/02/12 01:45:03;;;;;;;2.13;1.53;;;;;;;5.22;100.00;100898.47;4909650;29;20277;-81
2022/02/12 01:47:30;;;;;;;3.30;1.90;;;;;;;5.25;100.00;100905.28;4925595;29;20527;-77
2022/02/12 01:49:57;;;;;;;2.80;1.70;;;;;;;5.19;100.00;100905.91;4925969;29;20186;-79
2022/02/12 01:52:24;;;;;;;5.27;2.03;;;;;;;5.09;100.00;100903.34;4924443;29;20253;-79
2022/02/12 01:54:50;;;;;;;2.80;1.67;;;;;;;5.05;100.00;100906.44;4906905;29;20224;-77
2022/02/12 01:57:17;;;;;;;3.90;1.83;;;;;;;5.07;100.00;100902.66;4922572;29;20214;-77
2022/02/12 01:59:44;;;;;;;2.30;1.60;;;;;;;5.12;100.00;100915.50;4923274;29;20187;-78
2022/02/12 02:02:12;;;;;;;2.60;1.80;;;;;;;5.03;100.00;100914.59;4923009;29;20273;-80
2022/02/12 02:04:40;;;;;;;2.63;1.70;;;;;;;5.12;100.00;100911.03;4906653;29;20227;-77
2022/02/12 02:07:06;;;;;;;3.70;1.73;;;;;;;5.03;100.00;100903.97;4906806;29;20226;-77
2022/02/12 02:09:33;;;;;;;5.23;2.00;;;;;;;5.07;100.00;100918.59;4923416;29;20194;-79
2022/02/12 02:12:00;;;;;;;2.30;1.60;;;;;;;5.14;100.00;100914.34;4907026;29;20281;-77
2022/02/12 02:14:35;;;;;;;4.47;1.90;;;;;;;5.17;100.00;100913.22;4923331;29;20186;-77
2022/02/12 02:17:03;;;;;;;3.73;2.00;;;;;;;5.06;100.00;100913.44;4891259;29;20224;-78
2022/02/12 02:19:32;;;;;;;4.20;2.00;;;;;;;5.06;100.00;100914.28;4923466;29;20285;-77
2022/02/12 02:22:00;;;;;;;3.73;2.07;;;;;;;5.12;100.00;100928.78;4891111;29;20301;-77
2022/02/12 02:24:27;;;;;;;2.23;1.80;;;;;;;5.00;100.00;100927.31;4906587;29;20262;-78
2022/02/12 02:27:11;;;;;;;3.37;2.30;;;;;;;5.09;100.00;100929.06;4906850;29;20187;-77
2022/02/12 02:29:41;;;;;;;2.40;1.90;;;;;;;5.10;100.00;100930.75;4906816;29;20190;-77
2022/02/12 02:32:08;;;;;;;5.10;2.07;;;;;;;5.00;100.00;100932.63;4923031;29;20194;-81
2022/02/12 02:34:36;;;;;;;3.07;2.10;;;;;;;5.01;100.00;100934.31;4906623;29;20281;-78
2022/02/12 02:37:04;;;;;;;3.07;2.30;;;;;;;4.83;100.00;100927.19;4906190;29;20229;-78
2022/02/12 02:39:31;;;;;;;4.57;2.27;;;;;;;4.97;100.00;100943.56;4906754;29;20571;-77
2022/02/12 02:42:00;;;;;;;3.40;2.10;;;;;;;4.86;100.00;100937.50;4922162;29;20633;-79
2022/02/12 02:44:26;;;;;;;3.63;2.40;;;;;;;4.85;100.00;100929.69;4905947;29;20281;-76
2022/02/12 02:46:53;;;;;;;3.43;2.23;;;;;;;4.85;100.00;100924.38;4922597;29;20189;-77
2022/02/12 02:49:20;;;;;;;2.43;2.17;;;;;;;4.83;100.00;100931.66;4906172;29;20190;-78
2022/02/12 02:57:17;;;;;;;3.70;2.30;;;;;;;4.77;100.00;100946.38;4922504;29;20229;-77
2022/02/12 02:59:44;;;;;;;4.13;2.33;;;;;;;4.77;100.00;100941.06;4906096;29;20228;-81
2022/02/12 03:02:10;;;;;;;2.30;2.10;;;;;;;4.78;100.00;100948.03;4905839;29;20197;-77
2022/02/12 03:04:37;;;;;;;2.83;2.50;;;;;;;4.70;100.00;100947.13;4921707;29;20190;-81
2022/02/12 03:07:05;;;;;;;5.00;2.40;;;;;;;4.70;100.00;100937.34;4922339;29;20222;-78
2022/02/12 03:09:31;;;;;;;4.10;2.30;;;;;;;4.78;100.00;100941.88;4921981;29;20281;-78
2022/02/12 03:11:58;;;;;;;4.43;2.47;;;;;;;4.87;100.00;100943.63;4923178;29;20218;-76
2022/02/12 03:14:25;;;;;;;4.20;2.60;;;;;;;4.75;100.00;100931.59;4906376;29;20205;-77
2022/02/12 03:16:51;;;;;;;3.50;2.10;;;;;;;4.82;100.00;100935.28;4922283;29;20241;-76
2022/02/12 03:19:18;;;;;;;4.73;2.43;;;;;;;4.71;100.00;100938.19;4922832;29;20276;-77
2022/02/12 03:21:45;;;;;;;3.63;2.50;;;;;;;4.66;100.00;100946.59;4906322;29;20225;-78
2022/02/12 03:24:11;;;;;;;3.27;2.20;;;;;;;4.50;100.00;100946.41;4922965;29;20228;-78
2022/02/12 03:26:38;;;;;;;3.60;2.30;;;;;;;4.41;100.00;100929.56;4922576;29;20190;-77
2022/02/12 03:29:04;;;;;;;3.77;2.60;;;;;;;4.38;100.00;100944.94;4922718;29;20281;-80
2022/02/12 03:31:31;;;;;;;4.57;2.40;;;;;;;4.23;100.00;100941.09;4890292;29;20555;-77
2022/02/12 03:33:58;;;;;;;3.57;2.20;;;;;;;4.24;100.00;100946.28;4906100;29;20221;-78
2022/02/12 03:36:24;;;;;;;3.93;2.63;;;;;;;4.09;100.00;100945.06;4922874;29;20681;-77
2022/02/12 03:38:51;;;;;;;4.07;2.53;;;;;;;3.98;100.00;100959.34;4923110;29;20214;-77
2022/02/12 03:41:18;;;;;;;4.17;2.63;;;;;;;4.10;100.00;100953.88;4906308;29;20225;-78
2022/02/12 03:43:44;;;;;;;4.37;2.67;;;;;;;4.19;100.00;100953.84;4923107;29;20198;-80
2022/02/12 03:46:11;;;;;;;5.67;2.67;;;;;;;4.09;100.00;100947.72;4923001;29;20194;-78
2022/02/12 03:48:38;;;;;;;3.20;2.63;;;;;;;3.93;100.00;100951.00;4890308;29;20534;-77
2022/02/12 03:51:05;;;;;;;3.83;2.80;;;;;;;3.95;100.00;100966.75;4922623;29;20190;-78
2022/02/12 03:53:31;;;;;;;4.57;3.10;;;;;;;3.96;100.00;100974.59;4905952;29;20277;-78
2022/02/12 03:55:58;;;;;;;4.57;3.00;;;;;;;3.96;100.00;100969.28;4905348;29;20269;-76
2022/02/12 03:58:25;;;;;;;6.47;3.40;;;;;;;3.85;100.00;100968.59;4906577;29;20607;-77
2022/02/12 04:00:51;;;;;;;5.03;3.00;;;;;;;3.88;100.00;100970.94;4923207;29;20253;-77
2022/02/12 04:03:19;;;;;;;6.53;3.10;;;;;;;3.90;100.00;100977.81;4924696;29;20194;-77
2022/02/12 04:05:46;;;;;;;5.87;3.00;;;;;;;3.93;100.00;100976.66;4925984;29;20190;-80
2022/02/12 04:08:18;;;;;;;4.60;2.73;;;;;;;4.04;100.00;100991.56;4893418;29;20234;-79
2022/02/12 04:10:46;;;;;;;5.40;2.77;;;;;;;3.96;100.00;100979.88;4925568;29;20187;-77
2022/02/12 04:13:12;;;;;;;3.10;2.80;;;;;;;4.10;100.00;100994.50;4924882;29;20301;-77
2022/02/12 04:15:40;;;;;;;7.23;3.13;;;;;;;4.06;100.00;100989.63;4892916;29;20265;-81
2022/02/12 04:18:12;;;;;;;4.63;3.40;;;;;;;4.03;100.00;100995.19;4908755;29;20234;-78
2022/02/12 04:20:39;;;;;;;4.57;3.20;;;;;;;3.99;100.00;100997.31;4908653;29;20751;-77
2022/02/12 04:23:06;;;;;;;5.27;3.13;;;;;;;3.96;100.00;100990.50;4925926;29;20265;-79
2022/02/12 04:25:33;;;;;;;5.00;3.30;;;;;;;3.96;100.00;100987.00;4892784;29;20294;-77
2022/02/12 04:28:07;;;;;;;5.33;3.43;;;;;;;3.82;100.00;100998.06;4893109;29;20208;-78
2022/02/12 04:30:37;;;;;;;5.77;3.40;;;;;;;3.79;100.00;101006.28;4908898;29;20182;-78
2022/02/12 04:33:05;;;;;;;6.77;3.57;;;;;;;3.71;100.00;101003.50;4909025;29;20191;-76
2022/02/12 04:35:32;;;;;;;4.73;3.33;;;;;;;3.66;100.00;101005.75;4924978;29;20277;-78
2022/02/12 04:37:59;;;;;;;4.80;3.57;;;;;;;3.59;100.00;100997.56;4924849;29;20305;-77
2022/02/12 04:40:25;;;;;;;6.63;3.50;;;;;;;3.64;100.00;100995.28;4908426;29;20265;-79
2022/02/12 04:42:52;;;;;;;5.60;3.77;;;;;;;3.49;100.00;100994.91;4908212;29;20214;-77
2022/02/12 04:45:18;;;;;;;8.10;3.80;;;;;;;3.45;100.00;101003.28;4907982;29;20213;-77
2022/02/12 04:47:45;;;;;;;7.77;3.90;;;;;;;3.39;100.00;101009.97;4908137;29;20214;-80
2022/02/12 04:50:12;;;;;;;7.47;3.53;;;;;;;3.36;100.00;101004.94;4908340;29;20477;-77
2022/02/12 04:52:38;;;;;;;5.47;3.77;;;;;;;3.38;100.00;101002.16;4924949;29;20194;-77
2022/02/12 04:55:06;;;;;;;5.93;3.67;;;;;;;3.37;100.00;100992.53;4892628;29;20674;-77
2022/02/12 04:57:34;;;;;;;6.23;3.60;;;;;;;3.39;100.00;101001.19;4908059;29;20226;-77
2022/02/12 05:00:01;;;;;;;5.87;3.50;;;;;;;3.41;100.00;100996.56;4908074;29;20210;-77
2022/02/12 05:02:28;;;;;;;4.50;3.60;;;;;;;3.40;100.00;100997.56;4924785;29;20650;-77
2022/02/12 05:04:54;;;;;;;5.30;3.40;;;;;;;3.26;100.00;101009.41;4924313;29;20214;-77
2022/02/12 05:07:21;;;;;;;4.37;3.47;;;;;;;3.28;100.00;101009.25;4907703;29;20277;-78
2022/02/12 05:09:48;;;;;;;4.47;3.53;;;;;;;3.25;100.00;101005.09;4892626;29;20214;-78
2022/02/12 05:12:16;;;;;;;5.50;3.60;;;;;;;3.28;100.00;101006.59;4924632;29;20209;-80
2022/02/12 05:14:42;;;;;;;4.63;3.30;;;;;;;3.30;100.00;101007.31;4923421;29;20224;-79
2022/02/12 05:17:09;;;;;;;5.00;3.60;;;;;;;3.35;100.00;101008.59;4923686;29;20214;-78
2022/02/12 05:19:38;;;;;;;4.90;3.63;;;;;;;3.50;100.00;101014.25;4907197;29;20544;-79
2022/02/12 05:22:05;;;;;;;4.50;3.43;;;;;;;3.49;100.00;101024.06;4906506;29;20548;-81
2022/02/12 05:24:31;;;;;;;6.87;3.77;;;;;;;3.45;100.00;101019.19;4876117;29;20205;-77
2022/02/12 05:26:58;;;;;;;7.63;3.67;;;;;;;3.48;100.00;101014.44;4923467;29;20583;-77
2022/02/12 05:29:25;;;;;;;6.10;3.37;;;;;;;3.34;100.00;101000.75;4891150;29;20218;-77
2022/02/12 05:31:52;;;;;;;4.97;3.50;;;;;;;3.48;100.00;101006.47;4923277;29;20756;-77
2022/02/12 05:34:22;;;;;;;5.70;3.70;;;;;;;3.47;100.00;101011.91;4890485;29;20486;-77
2022/02/12 05:36:49;;;;;;;4.63;3.63;;;;;;;3.36;100.00;101007.59;4907103;29;20190;-79
2022/02/12 05:39:15;;;;;;;6.00;3.33;;;;;;;3.34;100.00;101003.41;4906713;29;20256;-76
2022/02/12 05:41:43;;;;;;;5.77;3.77;;;;;;;3.17;100.00;100994.38;4906190;29;20202;-78
2022/02/12 05:44:10;;;;;;;5.47;3.83;;;;;;;3.00;100.00;101008.25;4906191;29;20194;-79
2022/02/12 05:46:37;;;;;;;5.87;3.83;;;;;;;3.01;100.00;101016.09;4922852;29;20194;-77
2022/02/12 05:49:05;;;;;;;5.87;3.67;;;;;;;2.87;100.00;101019.13;4923101;29;20190;-78
2022/02/12 05:51:32;;;;;;;7.10;3.97;;;;;;;2.83;100.00;101012.44;4923437;29;20183;-78
2022/02/12 05:54:04;;;;;;;5.67;3.77;;;;;;;2.74;100.00;101015.06;4890696;29;20233;-77
2022/02/12 05:56:32;;;;;;;5.17;4.30;;;;;;;2.72;100.00;101017.00;4905750;29;20314;-77
2022/02/12 05:58:59;;;;;;;6.83;4.20;;;;;;;2.65;100.00;101006.97;4905872;29;20293;-78
2022/02/12 06:01:26;;;;;;;5.03;4.00;;;;;;;2.69;100.00;101020.75;4922207;29;20222;-77
2022/02/12 06:03:52;;;;;;;5.77;3.70;;;;;;;2.56;100.00;101017.53;4890659;29;20316;-76
2022/02/12 06:06:20;;;;;;;5.23;3.97;;;;;;;2.45;100.00;101028.19;4921710;29;20250;-76
2022/02/12 06:08:47;;;;;;;4.40;3.33;;;;;;;2.32;100.00;101017.84;4906137;29;20519;-77
2022/02/12 06:11:14;;;;;;;5.93;3.60;;;;;;;2.43;100.00;101035.41;4890621;29;20583;-80
2022/02/12 06:13:41;;;;;;;4.53;3.73;;;;;;;2.34;100.00;101029.13;4922177;29;20221;-79
2022/02/12 06:16:08;;;;;;;5.33;3.63;;;;;;;2.29;100.00;101033.97;4905493;29;20206;-77
2022/02/12 06:18:34;;;;;;;6.60;3.83;;;;;;;2.27;100.00;101053.59;4921624;29;20210;-78
2022/02/12 06:21:06;;;;;;;5.17;4.30;;;;;;;2.10;100.00;101047.13;4922050;29;20190;-80
2022/02/12 06:23:35;;;;;;;5.43;3.73;;;;;;;2.09;100.00;101071.88;4905350;29;20194;-77
2022/02/12 06:26:03;;;;;;;4.50;3.80;;;;;;;2.02;100.00;101070.69;4890062;29;20670;-77
2022/02/12 06:28:31;;;;;;;6.33;4.00;;;;;;;2.01;100.00;101072.50;4905776;29;20202;-77
2022/02/12 06:31:01;;;;;;;6.80;4.40;;;;;;;2.02;100.00;101081.28;4906222;29;20270;-79
2022/02/12 06:33:28;;;;;;;7.13;3.63;;;;;;;2.00;100.00;101075.28;4906546;29;20266;-77
2022/02/12 06:35:55;;;;;;;11.30;4.60;;;;;;;1.99;100.00;101077.09;4905665;29;20546;-77
2022/02/12 06:38:22;;;;;;;9.80;4.13;;;;;;;2.04;100.00;101092.56;4922185;29;20248;-77
2022/02/12 06:40:49;;;;;;;4.70;3.87;;;;;;;2.06;100.00;101102.03;4905649;29;20338;-77
2022/02/12 06:43:16;;;;;;;6.23;3.83;;;;;;;2.07;100.00;101098.44;4922122;29;20625;-81
2022/02/12 06:45:42;;;;;;;7.63;5.27;;;;;;;2.05;100.00;101079.19;4905017;29;20294;-77
2022/02/12 06:48:09;;;;;;;7.20;4.63;;;;;;;2.16;100.00;101096.81;4922658;29;20277;-78
2022/02/12 06:50:35;;;;;;;7.43;4.70;;;;;;;2.21;100.00;101094.59;4922434;29;20259;-76
2022/02/12 06:53:02;;;;;;;6.73;4.90;;;;;;;2.29;100.00;101102.72;4905636;29;20246;-76
2022/02/12 06:55:29;;;;;;;5.90;5.00;;;;;;;2.32;100.00;101107.78;4921901;29;20266;-79
2022/02/12 06:57:56;;;;;;;7.47;5.00;;;;;;;2.40;100.00;101115.03;4922120;29;20293;-79
2022/02/12 07:00:22;;;;;;;8.13;4.97;;;;;;;2.44;100.00;101119.09;4922724;29;20289;-76
2022/02/12 07:02:51;;;;;;;6.83;4.67;;;;;;;2.54;100.00;101123.47;4890652;29;20618;-77
2022/02/12 07:05:18;;;;;;;5.83;4.90;;;;;;;2.60;100.00;101116.81;4905175;29;20266;-80
2022/02/12 07:07:49;;;;;;;7.03;4.67;;;;;;;2.68;100.00;101117.00;4905678;29;20539;-80
2022/02/12 07:10:17;;;;;;;7.83;4.53;;;;;;;2.76;100.00;101118.97;4905258;29;20209;-81
2022/02/12 07:12:43;;;;;;;6.20;5.00;;;;;;;2.78;100.00;101133.75;4905751;29;20579;-77
2022/02/12 07:15:11;;;;;;;6.50;4.53;;;;;;;2.82;100.00;101129.88;4905250;29;20241;-77
2022/02/12 07:17:39;;;;;;;7.83;5.07;;;;;;;2.87;100.00;101145.34;4890085;29;20210;-77
2022/02/12 07:20:10;;;;;;;9.50;5.70;;;;;;;2.99;100.00;101152.22;4906381;29;20178;-78
2022/02/12 07:22:39;;;;;;;8.20;6.63;;;;;;;3.23;100.00;101143.91;4905699;29;20285;-79
2022/02/12 07:25:08;;;;;;;8.33;5.60;;;;;;;3.51;100.00;101148.44;4905653;29;20194;-81
2022/02/12 07:27:38;;;;;;;7.67;4.73;;;;;;;3.50;100.00;101147.59;4923588;29;20194;-79
2022/02/12 07:30:10;;;;;;;8.07;4.70;;;;;;;3.50;100.00;101147.59;4906636;29;20245;-77
2022/02/12 07:32:38;;;;;;;6.60;4.30;;;;;;;3.51;100.00;101146.63;4922966;29;20237;-79
2022/02/12 07:35:07;;;;;;;5.90;4.00;;;;;;;3.51;100.00;101148.44;4906168;29;20182;-81
2022/02/12 07:37:34;;;;;;;5.27;4.10;;;;;;;3.70;100.00;101142.31;4906472;29;20594;-80
2022/02/12 07:40:01;;;;;;;6.17;4.40;;;;;;;3.96;100.00;101151.41;4910306;29;20221;-77
2022/02/12 07:42:27;;;;;;;7.10;4.20;;;;;;;4.12;100.00;101146.38;4927028;29;20186;-80
2022/02/12 07:44:54;;;;;;;8.10;4.20;;;;;;;4.07;100.00;101148.59;4927272;29;20591;-77
2022/02/12 07:47:23;;;;;;;8.20;4.23;;;;;;;4.18;100.00;101160.88;4910248;29;20195;-78
2022/02/12 07:49:50;;;;;;;5.07;4.00;;;;;;;4.21;100.00;101165.91;4910284;29;20242;-77
2022/02/12 07:52:17;;;;;;;6.77;4.00;;;;;;;4.25;100.00;101162.81;4909359;29;20201;-81
2022/02/12 07:54:43;;;;;;;7.63;3.80;;;;;;;4.37;100.00;101161.69;4926393;29;20194;-77
2022/02/12 07:57:11;;;;;;;5.20;3.53;;;;;;;4.41;100.00;101164.91;4910031;29;20190;-77
2022/02/12 07:59:38;;;;;;;6.50;4.03;;;;;;;4.35;100.00;101168.94;4910478;29;20214;-80
2022/02/12 08:02:07;;;;;;;5.43;3.93;;;;;;;4.47;100.00;101167.00;4911757;29;20491;-77
2022/02/12 08:04:34;;;;;;;5.77;3.80;;;;;;;4.49;100.00;101159.69;4915082;29;20194;-77
2022/02/12 08:09:46;;;;;;;4.77;3.67;;;;;;;4.78;100.00;101167.59;4916914;29;20186;-78
2022/02/12 08:12:13;;;;;;;5.50;4.10;;;;;;;4.76;100.00;101162.41;4914450;29;20195;-76
2022/02/12 08:14:48;;;;;;;7.77;4.33;;;;;;;4.88;100.00;101163.94;4928672;29;20190;-76
2022/02/12 08:17:16;;;;;;;7.30;4.80;;;;;;;4.86;100.00;101165.03;4912573;29;20186;-76
2022/02/12 08:19:48;;;;;;;5.20;4.17;;;;;;;4.84;100.00;101159.88;4897563;29;20222;-76
2022/02/12 08:22:18;;;;;;;5.57;4.23;;;;;;;4.92;100.00;101175.09;4929657;29;20197;-76
2022/02/12 08:24:45;;;;;;;6.83;4.03;;;;;;;4.88;100.00;101177.22;4912882;29;20194;-78
2022/02/12 08:27:14;;;;;;;5.27;4.43;;;;;;;4.97;100.00;101180.81;4928811;29;20202;-76
2022/02/12 08:29:42;;;;;;;5.60;4.47;;;;;;;4.95;100.00;101185.41;4929154;29;20234;-77
2022/02/12 08:32:12;;;;;;;6.03;4.40;;;;;;;5.00;100.00;101175.19;4898718;29;20400;-79
2022/02/12 08:34:42;;;;;;;5.00;4.27;;;;;;;5.02;100.00;101183.03;4896020;29;20739;-79
2022/02/12 08:37:11;;;;;;;5.53;3.83;;;;;;;5.10;100.00;101180.47;4930426;29;20190;-76
2022/02/12 08:39:44;;;;;;;4.27;3.87;;;;;;;5.20;100.00;101187.41;4914305;29;20198;-78
2022/02/12 08:42:11;;;;;;;5.30;4.03;;;;;;;5.31;100.00;101179.25;4895337;29;20199;-78
2022/02/12 08:44:41;;;;;;;5.47;4.07;;;;;;;5.25;100.00;101173.69;4915140;29;20207;-79
2022/02/12 08:47:12;;;;;;;4.87;3.77;;;;;;;5.43;100.00;101182.53;4928715;29;20194;-76
2022/02/12 08:49:40;;;;;;;6.50;4.10;;;;;;;5.48;100.00;101184.75;4928431;29;20265;-77
2022/02/12 08:52:10;;;;;;;5.07;4.40;;;;;;;5.49;100.00;101181.94;4925873;29;20619;-77
2022/02/12 08:54:37;;;;;;;5.27;4.33;;;;;;;5.53;100.00;101185.13;4924315;29;20254;-80
2022/02/12 08:57:05;;;;;;;4.90;4.37;;;;;;;5.53;100.00;101178.00;4907244;29;20233;-78
2022/02/12 08:59:32;;;;;;;4.53;4.13;;;;;;;5.53;100.00;101182.47;4924616;29;20301;-81
2022/02/12 09:02:12;;;;;;;5.73;3.80;;;;;;;5.68;100.00;101188.97;4910319;29;20529;-79
2022/02/12 09:04:40;;;;;;;4.97;4.27;;;;;;;5.79;100.00;101183.41;4929453;29;20221;-79
2022/02/12 09:07:09;;;;;;;4.63;3.90;;;;;;;5.81;100.00;101177.94;4943272;29;20230;-82
2022/02/12 09:09:36;;;;;;;4.23;3.83;;;;;;;5.84;100.00;101182.94;4940611;29;20197;-77
2022/02/12 09:12:04;;;;;;;4.70;3.50;;;;;;;5.84;100.00;101174.97;4924224;29;20193;-78
2022/02/12 09:14:31;;;;;;;5.40;3.60;;;;;;;5.99;100.00;101178.81;4925764;29;20253;-81
2022/02/12 09:16:58;;;;;;;6.00;4.30;;;;;;;6.04;100.00;101188.00;4924774;29;20274;-82
2022/02/12 09:19:24;;;;;;;5.37;4.03;;;;;;;6.07;100.00;101184.19;4925241;29;20640;-81
2022/02/12 09:21:51;;;;;;;4.67;3.30;;;;;;;6.11;100.00;101180.28;4941200;29;20539;-80
2022/02/12 09:24:18;;;;;;;4.90;3.63;;;;;;;6.19;100.00;101170.53;4923384;29;20505;-79
2022/02/12 09:26:45;;;;;;;3.60;3.30;;;;;;;6.21;100.00;101167.69;4938890;29;20213;-77
2022/02/12 09:29:12;;;;;;;4.53;3.00;;;;;;;6.28;100.00;101175.91;4923406;29;20245;-81
2022/02/12 09:31:39;;;;;;;3.33;3.03;;;;;;;6.36;100.00;101178.63;4923318;29;20676;-81
2022/02/12 09:34:06;;;;;;;4.13;3.10;;;;;;;6.37;99.79;101186.47;4924035;29;20197;-79
2022/02/12 09:36:33;;;;;;;3.07;2.30;;;;;;;6.49;97.76;101177.22;4923661;29;20478;-79
2022/02/12 09:39:00;;;;;;;3.30;2.53;;;;;;;6.38;84.72;101174.00;4923782;29;20529;-79
2022/02/12 09:41:27;;;;;;;2.97;2.37;;;;;;;6.48;84.92;101164.09;4940784;29;20181;-78
2022/02/12 09:43:55;;;;;;;2.90;2.00;;;;;;;6.63;85.18;101168.66;4940209;29;20217;-77
2022/02/12 09:46:40;;;;;;;2.80;2.60;;;;;;;6.73;84.71;101179.22;4923150;29;20209;-82
2022/02/12 09:49:08;;;;;;;2.73;2.50;;;;;;;6.76;85.39;101175.41;4908207;29;20204;-81
2022/02/12 09:51:37;;;;;;;2.30;2.10;;;;;;;6.92;82.79;101179.00;4940253;29;20220;-77
2022/02/12 09:54:04;;;;;;;2.53;2.20;;;;;;;6.70;77.45;101178.69;4941184;29;20226;-76
2022/02/12 09:56:30;;;;;;;2.53;2.10;;;;;;;6.57;77.18;101173.81;4944252;29;20200;-79
2022/02/12 09:58:59;;;;;;;2.40;2.20;;;;;;;6.80;77.68;101177.59;4920379;23;20232;-76
2022/02/12 10:01:31;;;;;;;3.07;2.40;;;;;;;6.72;81.16;101184.72;4929282;29;20211;-76
2022/02/12 10:04:19;;;;;;;3.17;2.57;;;;;;;6.93;81.39;101180.69;4954881;23;20249;-76
2022/02/12 10:06:48;;;;;;;2.83;2.40;;;;;;;6.98;78.47;101175.72;4938033;23;20241;-76
2022/02/12 10:09:15;;;;;;;2.90;2.53;;;;;;;7.17;80.02;101182.63;4926124;23;20650;-76
2022/02/12 10:11:49;;;;;;;3.40;2.73;;;;;;;7.40;77.24;101188.22;4920584;29;20190;-76
2022/02/12 10:14:36;;;;;;;4.63;2.90;;;;;;;7.68;78.61;101168.28;4949950;29;20182;-76
2022/02/12 10:17:08;;;;;;;4.10;2.73;;;;;;;7.92;77.00;101170.16;4950191;29;20225;-77
2022/02/12 10:19:41;;;;;;;3.87;2.80;;;;;;;7.94;73.27;101174.31;4951657;29;20185;-76
2022/02/12 10:22:13;;;;;;;3.43;2.73;;;;;;;8.22;71.34;101177.50;4951844;29;20579;-76
2022/02/12 10:24:48;;;;;;;3.30;3.00;;;;;;;8.44;69.98;101161.88;4943502;29;20578;-76
2022/02/12 10:27:19;;;;;;;2.80;2.60;;;;;;;8.59;70.99;101152.97;4934177;29;20186;-76
2022/02/12 10:29:51;;;;;;;4.50;2.90;;;;;;;8.81;70.11;101160.28;4930232;29;20216;-76
2022/02/12 10:32:22;;;;;;;2.97;2.73;;;;;;;8.89;69.57;101156.75;4932549;29;20258;-76
2022/02/12 10:34:50;;;;;;;3.13;2.70;;;;;;;9.08;68.35;101155.53;4933557;29;20188;-76
2022/02/12 10:37:20;;;;;;;3.37;2.73;;;;;;;9.14;65.91;101144.16;4918869;29;20198;-76
2022/02/12 10:39:54;;;;;;;3.50;3.20;;;;;;;8.88;67.13;101127.50;4906644;29;20513;-74
2022/02/12 10:42:23;;;;;;;3.10;2.80;;;;;;;8.73;66.87;101133.56;4901694;29;20181;-74
2022/02/12 10:44:51;;;;;;;3.30;3.00;;;;;;;8.54;68.39;101141.97;5294726;23;20238;-75
2022/02/12 10:47:23;;;;;;;3.00;2.70;;;;;;;8.09;67.42;101137.13;4917559;29;20202;-75
2022/02/12 10:49:54;;;;;;;4.20;2.90;;;;;;;7.94;68.20;101123.63;4937802;23;20251;-75
2022/02/12 10:52:41;;;;;;;2.80;2.43;;;;;;;7.91;68.36;101123.97;4929528;29;20226;-76
2022/02/12 10:55:19;;;;;;;2.90;2.60;;;;;;;7.75;67.61;101125.75;4930429;29;20216;-75
2022/02/12 10:57:48;;;;;;;2.90;2.70;;;;;;;7.78;68.12;101112.13;4927742;29;20185;-76
2022/02/12 11:00:15;;;;;;;3.43;2.80;;;;;;;8.10;67.84;101122.78;4907190;29;20213;-75
2022/02/12 11:02:43;;;;;;;2.77;2.53;;;;;;;8.55;67.12;101110.75;4906113;29;20198;-76
2022/02/12 11:05:11;;;;;;;3.27;2.97;;;;;;;9.04;65.18;101114.94;4925262;29;20563;-76
2022/02/12 11:07:39;;;;;;;3.57;2.87;;;;;;;9.56;63.75;101112.50;4923121;29;20599;-76
2022/02/12 11:10:09;;;;;;;3.00;2.70;;;;;;;9.85;61.19;101108.25;4909249;29;20189;-76
2022/02/12 11:12:36;;;;;;;4.03;2.90;;;;;;;10.24;60.11;101105.44;4924384;29;20192;-74
2022/02/12 11:15:07;;;;;;;3.10;2.70;;;;;;;10.58;58.56;101105.78;4928573;29;20197;-75
2022/02/12 11:17:56;;;;;;;3.20;2.90;;;;;;;10.75;55.88;101104.59;4926551;29;20192;-74
2022/02/12 11:20:23;;;;;;;4.00;2.93;;;;;;;10.85;57.36;101102.47;4912317;29;20214;-76
2022/02/12 11:23:24;;;;;;;3.53;3.23;;;;;;;11.17;55.59;101095.84;4947529;23;20238;-74
2022/02/12 11:26:04;;;;;;;3.10;2.80;;;;;;;11.46;54.56;101090.41;4919895;29;20182;-74
2022/02/12 11:28:33;;;;;;;3.87;3.10;;;;;;;11.39;53.28;101084.13;4933670;29;20213;-73
2022/02/12 11:31:20;;;;;;;3.37;3.07;;;;;;;10.53;53.50;101079.53;4942698;23;20261;-75
2022/02/12 11:34:21;;;;;;;3.90;2.90;;;;;;;10.09;56.06;101082.13;4932672;29;20210;-73
2022/02/12 11:37:32;;;;;;;4.77;3.00;;;;;;;10.65;55.52;101081.75;4928848;23;20287;-76
2022/02/12 11:40:24;;;;;;;3.60;2.60;;;;;;;10.99;53.52;101082.84;4934726;29;20204;-74
2022/02/12 11:43:11;;;;;;;2.93;2.63;;;;;;;10.34;52.16;101076.56;4932079;29;20198;-76